createdAt,value
2022-11-30T17:36:29.479Z,102331.72
2022-11-30T17:39:16.179Z,102332.41
2022-11-30T17:42:03.006Z,102328.31
2022-11-30T17:44:50.166Z,102327.47
2022-11-30T17:47:37.667Z,102331.38
2022-11-30T17:50:24.296Z,102330.63
2022-11-30T17:53:17.823Z,102328.31
2022-11-30T17:56:06.364Z,102332.41
2022-11-30T17:58:53.052Z,102338.56
2022-11-30T18:01:40.418Z,102334.22
2022-11-30T18:04:27.053Z,102334.22
2022-11-30T18:07:13.707Z,102338.84
2022-11-30T18:10:01.920Z,102337.28
2022-11-30T18:12:48.699Z,102337.09
2022-11-30T18:15:35.305Z,102343.44
2022-11-30T18:18:22.007Z,102341.50
2022-11-30T18:21:11.912Z,102345.84
2022-11-30T18:23:59.510Z,102331.56
2022-11-30T18:26:47.292Z,102345.16
2022-11-30T18:29:34.117Z,102348.66
2022-11-30T18:32:21.018Z,102345.00
2022-11-30T18:35:08.860Z,102358.84
2022-11-30T18:37:55.280Z,102359.84
2022-11-30T18:40:42.209Z,102359.00
2022-11-30T18:43:30.737Z,102361.59
2022-11-30T18:46:17.202Z,102364.47
2022-11-30T18:49:03.966Z,102366.19
2022-11-30T18:51:50.798Z,102360.78
2022-11-30T18:54:37.526Z,102368.75
2022-11-30T18:57:24.252Z,102364.94
2022-11-30T19:00:13.525Z,102367.56
2022-11-30T19:03:00.263Z,102367.81
2022-11-30T19:05:46.780Z,102373.22
2022-11-30T19:08:33.645Z,102366.19
2022-11-30T19:11:20.692Z,102374.00
2022-11-30T19:14:08.188Z,102366.97
2022-11-30T19:16:56.242Z,102373.81
2022-11-30T19:19:42.776Z,102366.38
2022-11-30T19:22:31.214Z,102369.88
2022-11-30T19:25:19.222Z,102376.00
2022-11-30T19:28:06.304Z,102380.47
2022-11-30T19:30:53.259Z,102375.44
2022-11-30T19:33:42.866Z,102379.00
2022-11-30T19:36:33.087Z,102375.53
2022-11-30T19:39:19.698Z,102378.84
2022-11-30T19:42:07.617Z,102383.28
2022-11-30T19:44:58.054Z,102386.06
2022-11-30T19:47:45.776Z,102388.41
2022-11-30T19:50:35.190Z,102393.38
2022-11-30T19:53:22.398Z,102381.94
2022-11-30T19:56:11.425Z,102387.38
2022-11-30T19:59:04.457Z,102397.66
2022-11-30T20:01:52.620Z,102397.47
2022-11-30T20:04:39.357Z,102401.69
2022-11-30T20:07:27.714Z,102344.16
2022-11-30T20:10:14.608Z,102355.69
2022-11-30T20:13:01.014Z,102406.13
2022-11-30T20:15:52.435Z,102412.88
2022-11-30T20:18:45.521Z,102412.81
2022-11-30T20:21:34.832Z,102414.34
2022-11-30T20:24:22.873Z,102414.69
2022-11-30T20:27:09.730Z,102410.75
2022-11-30T20:29:56.661Z,102417.03
2022-11-30T20:32:45.301Z,102425.69
2022-11-30T20:35:31.956Z,102417.25
2022-11-30T20:38:18.892Z,102408.84
2022-11-30T20:41:11.183Z,102414.50
2022-11-30T20:43:58.656Z,102417.41
2022-11-30T20:46:45.691Z,102416.63
2022-11-30T20:49:34.668Z,102424.16
2022-11-30T20:52:21.525Z,102423.22
2022-11-30T20:55:08.633Z,102425.72
2022-11-30T20:57:56.638Z,102433.75
2022-11-30T21:00:43.241Z,102422.63
2022-11-30T21:03:29.865Z,102416.41
2022-11-30T21:06:17.208Z,102423.41
2022-11-30T21:09:05.158Z,102426.81
2022-11-30T21:11:51.631Z,102422.41
2022-11-30T21:14:40.055Z,102429.38
2022-11-30T21:17:34.027Z,102426.16
2022-11-30T21:20:21.904Z,102423.72
2022-11-30T21:23:08.859Z,102420.38
2022-11-30T21:25:55.683Z,102431.34
2022-11-30T21:28:49.079Z,102439.31
2022-11-30T21:31:39.128Z,102433.22
2022-11-30T21:34:26.581Z,102438.22
2022-11-30T21:37:13.355Z,102436.31
2022-11-30T21:40:00.184Z,102434.69
2022-11-30T21:42:46.816Z,102425.28
2022-11-30T21:45:33.687Z,102426.91
2022-11-30T21:48:21.753Z,102421.84
2022-11-30T21:51:10.282Z,102429.78
2022-11-30T21:53:59.483Z,102430.72
2022-11-30T21:56:46.329Z,102432.50
2022-11-30T21:59:33.719Z,102432.50
2022-11-30T22:02:21.214Z,102435.38
2022-11-30T22:05:10.012Z,102438.41
2022-11-30T22:07:56.825Z,102436.84
2022-11-30T22:10:43.810Z,102439.97
2022-11-30T22:13:30.847Z,102440.06
2022-11-30T22:16:18.483Z,102439.28
2022-11-30T22:19:06.231Z,102437.25
2022-11-30T22:21:54.495Z,102441.28
2022-11-30T22:24:41.125Z,102441.69
2022-11-30T22:27:27.855Z,102437.88
2022-11-30T22:30:15.142Z,102439.59
2022-11-30T22:33:01.790Z,102441.06
2022-11-30T22:35:48.677Z,102441.13
2022-11-30T22:38:36.780Z,102440.31
2022-11-30T22:41:24.045Z,102446.16
2022-11-30T22:44:13.716Z,102449.09
2022-11-30T22:47:00.321Z,102436.66
2022-11-30T22:49:47.412Z,102430.03
2022-11-30T22:53:01.571Z,102440.50
2022-11-30T22:55:47.841Z,102438.84
2022-11-30T22:58:35.560Z,102443.81
2022-11-30T23:01:24.745Z,102441.28
2022-11-30T23:04:14.226Z,102434.13
2022-11-30T23:07:00.791Z,102429.53
2022-11-30T23:09:47.913Z,102431.41
2022-11-30T23:12:58.616Z,102432.19
2022-11-30T23:15:42.693Z,102429.34
2022-11-30T23:18:31.289Z,102429.25
2022-11-30T23:21:20.563Z,102429.09
2022-11-30T23:24:09.004Z,102418.44
2022-11-30T23:26:55.737Z,102435.34
2022-11-30T23:29:44.097Z,102430.13
2022-11-30T23:32:36.024Z,102430.22
2022-11-30T23:35:24.279Z,102431.47
2022-11-30T23:38:12.452Z,102432.00
2022-11-30T23:41:04.011Z,102427.47
2022-11-30T23:43:50.840Z,102432.56
2022-11-30T23:46:39.298Z,102425.44
2022-11-30T23:49:26.201Z,102422.16
2022-11-30T23:52:12.966Z,102410.66
2022-11-30T23:54:59.526Z,102422.41
2022-11-30T23:57:46.888Z,102419.59
